sensor_id;sensor_type;location;lat;lon;timestamp;P1;durP1;ratioP1;P2;durP2;ratioP2
27213;SDS011;14723;55.814;37.460;2023-07-13T00:02:58;5.28;;;3.17;;
27213;SDS011;14723;55.814;37.460;2023-07-13T00:06:04;5.72;;;3.05;;
27213;SDS011;14723;55.814;37.460;2023-07-13T00:09:10;5.90;;;2.90;;
27213;SDS011;14723;55.814;37.460;2023-07-13T00:12:26;6.13;;;3.50;;
27213;SDS011;14723;55.814;37.460;2023-07-13T00:15:32;4.57;;;3.00;;
27213;SDS011;14723;55.814;37.460;2023-07-13T00:18:38;4.25;;;3.10;;
27213;SDS011;14723;55.814;37.460;2023-07-13T00:21:43;5.03;;;2.90;;
27213;SDS011;14723;55.814;37.460;2023-07-13T00:24:48;4.95;;;2.80;;
27213;SDS011;14723;55.814;37.460;2023-07-13T00:27:57;4.45;;;2.47;;
27213;SDS011;14723;55.814;37.460;2023-07-13T00:31:02;6.32;;;3.00;;
27213;SDS011;14723;55.814;37.460;2023-07-13T00:34:10;6.03;;;3.23;;
27213;SDS011;14723;55.814;37.460;2023-07-13T00:37:15;5.07;;;2.80;;
27213;SDS011;14723;55.814;37.460;2023-07-13T00:40:21;5.63;;;2.92;;
27213;SDS011;14723;55.814;37.460;2023-07-13T00:43:30;4.90;;;2.60;;
27213;SDS011;14723;55.814;37.460;2023-07-13T00:46:36;4.70;;;2.70;;
27213;SDS011;14723;55.814;37.460;2023-07-13T00:49:41;4.07;;;2.85;;
27213;SDS011;14723;55.814;37.460;2023-07-13T00:52:49;4.00;;;2.90;;
27213;SDS011;14723;55.814;37.460;2023-07-13T00:55:57;4.10;;;2.53;;
27213;SDS011;14723;55.814;37.460;2023-07-13T00:59:05;5.30;;;2.60;;
27213;SDS011;14723;55.814;37.460;2023-07-13T01:02:11;4.93;;;2.45;;
27213;SDS011;14723;55.814;37.460;2023-07-13T01:05:18;3.47;;;2.53;;
27213;SDS011;14723;55.814;37.460;2023-07-13T01:08:25;3.80;;;2.97;;
27213;SDS011;14723;55.814;37.460;2023-07-13T01:11:30;5.80;;;2.67;;
27213;SDS011;14723;55.814;37.460;2023-07-13T01:14:40;4.63;;;2.92;;
27213;SDS011;14723;55.814;37.460;2023-07-13T01:17:45;4.60;;;2.72;;
27213;SDS011;14723;55.814;37.460;2023-07-13T01:20:54;4.88;;;3.10;;
27213;SDS011;14723;55.814;37.460;2023-07-13T01:27:05;4.95;;;2.58;;
27213;SDS011;14723;55.814;37.460;2023-07-13T01:30:14;6.43;;;2.95;;
27213;SDS011;14723;55.814;37.460;2023-07-13T01:33:19;4.90;;;3.05;;
27213;SDS011;14723;55.814;37.460;2023-07-13T01:36:27;4.07;;;2.85;;
27213;SDS011;14723;55.814;37.460;2023-07-13T01:39:33;4.70;;;3.25;;
27213;SDS011;14723;55.814;37.460;2023-07-13T01:42:40;4.88;;;2.90;;
27213;SDS011;14723;55.814;37.460;2023-07-13T01:45:45;3.17;;;2.88;;
27213;SDS011;14723;55.814;37.460;2023-07-13T01:48:51;7.00;;;3.15;;
27213;SDS011;14723;55.814;37.460;2023-07-13T01:51:59;6.43;;;3.03;;
27213;SDS011;14723;55.814;37.460;2023-07-13T01:55:06;4.18;;;3.25;;
27213;SDS011;14723;55.814;37.460;2023-07-13T01:58:11;6.40;;;2.85;;
27213;SDS011;14723;55.814;37.460;2023-07-13T02:01:17;6.45;;;2.90;;
27213;SDS011;14723;55.814;37.460;2023-07-13T02:04:22;4.32;;;3.40;;
27213;SDS011;14723;55.814;37.460;2023-07-13T02:07:31;5.03;;;3.65;;
27213;SDS011;14723;55.814;37.460;2023-07-13T02:10:38;3.75;;;2.72;;
27213;SDS011;14723;55.814;37.460;2023-07-13T02:13:43;7.18;;;3.05;;
27213;SDS011;14723;55.814;37.460;2023-07-13T02:16:49;7.97;;;3.70;;
27213;SDS011;14723;55.814;37.460;2023-07-13T02:19:54;6.47;;;3.30;;
27213;SDS011;14723;55.814;37.460;2023-07-13T02:23:02;5.40;;;3.25;;
27213;SDS011;14723;55.814;37.460;2023-07-13T02:26:11;3.88;;;3.05;;
27213;SDS011;14723;55.814;37.460;2023-07-13T02:29:16;5.43;;;2.90;;
27213;SDS011;14723;55.814;37.460;2023-07-13T02:32:22;5.30;;;2.97;;
27213;SDS011;14723;55.814;37.460;2023-07-13T02:35:28;6.32;;;3.25;;
27213;SDS011;14723;55.814;37.460;2023-07-13T02:38:36;5.50;;;3.05;;
27213;SDS011;14723;55.814;37.460;2023-07-13T02:41:41;4.22;;;2.80;;
27213;SDS011;14723;55.814;37.460;2023-07-13T02:44:48;4.57;;;2.88;;
27213;SDS011;14723;55.814;37.460;2023-07-13T02:47:53;5.15;;;2.95;;
27213;SDS011;14723;55.814;37.460;2023-07-13T02:50:59;6.25;;;3.13;;
27213;SDS011;14723;55.814;37.460;2023-07-13T02:54:08;5.38;;;3.00;;
27213;SDS011;14723;55.814;37.460;2023-07-13T02:57:15;7.05;;;3.00;;
27213;SDS011;14723;55.814;37.460;2023-07-13T03:00:23;4.63;;;3.10;;
27213;SDS011;14723;55.814;37.460;2023-07-13T03:03:30;4.60;;;3.28;;
27213;SDS011;14723;55.814;37.460;2023-07-13T03:06:35;6.65;;;3.80;;
27213;SDS011;14723;55.814;37.460;2023-07-13T03:09:43;6.82;;;3.47;;
27213;SDS011;14723;55.814;37.460;2023-07-13T03:12:48;7.30;;;3.22;;
27213;SDS011;14723;55.814;37.460;2023-07-13T03:15:58;6.15;;;2.95;;
27213;SDS011;14723;55.814;37.460;2023-07-13T03:19:04;4.43;;;3.03;;
27213;SDS011;14723;55.814;37.460;2023-07-13T03:22:09;8.10;;;3.03;;
27213;SDS011;14723;55.814;37.460;2023-07-13T03:25:19;6.30;;;3.20;;
27213;SDS011;14723;55.814;37.460;2023-07-13T03:28:25;5.85;;;3.30;;
27213;SDS011;14723;55.814;37.460;2023-07-13T03:31:33;6.60;;;3.65;;
27213;SDS011;14723;55.814;37.460;2023-07-13T03:34:39;9.52;;;3.30;;
27213;SDS011;14723;55.814;37.460;2023-07-13T03:37:44;7.18;;;3.10;;
27213;SDS011;14723;55.814;37.460;2023-07-13T03:40:56;3.90;;;2.80;;
27213;SDS011;14723;55.814;37.460;2023-07-13T03:44:03;4.38;;;3.08;;
27213;SDS011;14723;55.814;37.460;2023-07-13T03:47:09;7.10;;;2.83;;
27213;SDS011;14723;55.814;37.460;2023-07-13T03:50:14;6.55;;;3.22;;
27213;SDS011;14723;55.814;37.460;2023-07-13T03:53:20;3.33;;;2.95;;
27213;SDS011;14723;55.814;37.460;2023-07-13T03:56:29;4.85;;;2.80;;
27213;SDS011;14723;55.814;37.460;2023-07-13T03:59:38;4.22;;;3.25;;
27213;SDS011;14723;55.814;37.460;2023-07-13T04:02:43;5.65;;;3.15;;
27213;SDS011;14723;55.814;37.460;2023-07-13T04:05:50;3.95;;;2.55;;
27213;SDS011;14723;55.814;37.460;2023-07-13T04:08:57;6.30;;;3.10;;
27213;SDS011;14723;55.814;37.460;2023-07-13T04:12:07;6.03;;;2.85;;
27213;SDS011;14723;55.814;37.460;2023-07-13T04:15:13;3.65;;;3.03;;
27213;SDS011;14723;55.814;37.460;2023-07-13T04:18:18;4.57;;;2.63;;
27213;SDS011;14723;55.814;37.460;2023-07-13T04:21:25;4.47;;;3.10;;
27213;SDS011;14723;55.814;37.460;2023-07-13T04:24:30;5.40;;;3.55;;
27213;SDS011;14723;55.814;37.460;2023-07-13T04:27:39;4.03;;;2.90;;
27213;SDS011;14723;55.814;37.460;2023-07-13T04:30:44;4.85;;;3.25;;
27213;SDS011;14723;55.814;37.460;2023-07-13T04:33:50;4.63;;;2.90;;
27213;SDS011;14723;55.814;37.460;2023-07-13T04:36:55;4.97;;;2.97;;
27213;SDS011;14723;55.814;37.460;2023-07-13T04:40:01;6.55;;;3.13;;
27213;SDS011;14723;55.814;37.460;2023-07-13T04:43:10;5.55;;;3.13;;
27213;SDS011;14723;55.814;37.460;2023-07-13T04:46:16;5.88;;;3.25;;
27213;SDS011;14723;55.814;37.460;2023-07-13T04:49:22;5.37;;;2.77;;
27213;SDS011;14723;55.814;37.460;2023-07-13T04:52:28;8.68;;;4.03;;
27213;SDS011;14723;55.814;37.460;2023-07-13T04:55:34;6.10;;;2.92;;
27213;SDS011;14723;55.814;37.460;2023-07-13T04:58:42;4.13;;;2.75;;
27213;SDS011;14723;55.814;37.460;2023-07-13T05:01:47;5.85;;;3.33;;
27213;SDS011;14723;55.814;37.460;2023-07-13T05:04:53;6.95;;;2.80;;
27213;SDS011;14723;55.814;37.460;2023-07-13T05:07:59;5.03;;;3.10;;
27213;SDS011;14723;55.814;37.460;2023-07-13T05:11:04;6.45;;;2.92;;
27213;SDS011;14723;55.814;37.460;2023-07-13T05:14:13;4.95;;;2.90;;
27213;SDS011;14723;55.814;37.460;2023-07-13T05:17:18;6.93;;;2.60;;
27213;SDS011;14723;55.814;37.460;2023-07-13T05:20:24;7.43;;;3.25;;
27213;SDS011;14723;55.814;37.460;2023-07-13T05:23:29;8.35;;;4.38;;
27213;SDS011;14723;55.814;37.460;2023-07-13T05:26:35;3.33;;;2.75;;
27213;SDS011;14723;55.814;37.460;2023-07-13T05:29:43;7.20;;;3.65;;
27213;SDS011;14723;55.814;37.460;2023-07-13T05:32:48;6.35;;;2.92;;
27213;SDS011;14723;55.814;37.460;2023-07-13T05:35:54;4.80;;;3.00;;
27213;SDS011;14723;55.814;37.460;2023-07-13T05:38:59;6.78;;;2.75;;
27213;SDS011;14723;55.814;37.460;2023-07-13T05:42:05;4.43;;;2.80;;
27213;SDS011;14723;55.814;37.460;2023-07-13T05:45:13;7.68;;;3.03;;
27213;SDS011;14723;55.814;37.460;2023-07-13T05:48:18;6.70;;;3.08;;
27213;SDS011;14723;55.814;37.460;2023-07-13T05:51:24;6.38;;;2.90;;
27213;SDS011;14723;55.814;37.460;2023-07-13T05:54:29;9.55;;;2.78;;
27213;SDS011;14723;55.814;37.460;2023-07-13T05:57:34;6.72;;;2.65;;
27213;SDS011;14723;55.814;37.460;2023-07-13T06:00:43;7.13;;;2.70;;
27213;SDS011;14723;55.814;37.460;2023-07-13T06:03:48;5.82;;;2.97;;
27213;SDS011;14723;55.814;37.460;2023-07-13T06:06:53;3.35;;;2.80;;
27213;SDS011;14723;55.814;37.460;2023-07-13T06:09:58;6.72;;;2.97;;
27213;SDS011;14723;55.814;37.460;2023-07-13T06:13:04;6.70;;;3.30;;
27213;SDS011;14723;55.814;37.460;2023-07-13T06:16:12;6.10;;;2.92;;
27213;SDS011;14723;55.814;37.460;2023-07-13T06:19:18;6.22;;;3.03;;
27213;SDS011;14723;55.814;37.460;2023-07-13T06:22:23;11.55;;;3.33;;
27213;SDS011;14723;55.814;37.460;2023-07-13T06:25:29;4.82;;;2.58;;
27213;SDS011;14723;55.814;37.460;2023-07-13T06:28:34;4.53;;;2.63;;
27213;SDS011;14723;55.814;37.460;2023-07-13T06:31:44;6.33;;;3.73;;
27213;SDS011;14723;55.814;37.460;2023-07-13T06:34:49;4.65;;;3.03;;
27213;SDS011;14723;55.814;37.460;2023-07-13T06:37:55;4.15;;;2.47;;
27213;SDS011;14723;55.814;37.460;2023-07-13T06:41:01;10.10;;;2.67;;
27213;SDS011;14723;55.814;37.460;2023-07-13T06:44:07;5.45;;;2.55;;
27213;SDS011;14723;55.814;37.460;2023-07-13T06:47:15;9.00;;;2.67;;
27213;SDS011;14723;55.814;37.460;2023-07-13T06:50:20;4.05;;;2.58;;
27213;SDS011;14723;55.814;37.460;2023-07-13T06:53:25;6.43;;;2.60;;
27213;SDS011;14723;55.814;37.460;2023-07-13T06:56:31;5.45;;;3.10;;
27213;SDS011;14723;55.814;37.460;2023-07-13T06:59:36;6.40;;;3.33;;
27213;SDS011;14723;55.814;37.460;2023-07-13T07:02:44;5.03;;;2.80;;
27213;SDS011;14723;55.814;37.460;2023-07-13T07:05:50;3.72;;;2.78;;
27213;SDS011;14723;55.814;37.460;2023-07-13T07:08:55;8.75;;;2.72;;
27213;SDS011;14723;55.814;37.460;2023-07-13T07:12:01;5.00;;;2.60;;
27213;SDS011;14723;55.814;37.460;2023-07-13T07:15:07;6.65;;;2.55;;
27213;SDS011;14723;55.814;37.460;2023-07-13T07:18:15;7.18;;;2.95;;
27213;SDS011;14723;55.814;37.460;2023-07-13T07:21:20;6.68;;;2.42;;
27213;SDS011;14723;55.814;37.460;2023-07-13T07:24:26;5.65;;;2.53;;
27213;SDS011;14723;55.814;37.460;2023-07-13T07:27:31;5.05;;;2.45;;
27213;SDS011;14723;55.814;37.460;2023-07-13T07:30:41;10.13;;;2.70;;
27213;SDS011;14723;55.814;37.460;2023-07-13T07:33:52;8.18;;;2.80;;
27213;SDS011;14723;55.814;37.460;2023-07-13T07:36:58;4.97;;;2.38;;
27213;SDS011;14723;55.814;37.460;2023-07-13T07:40:07;9.57;;;2.80;;
27213;SDS011;14723;55.814;37.460;2023-07-13T07:43:16;6.45;;;2.70;;
27213;SDS011;14723;55.814;37.460;2023-07-13T07:46:21;4.95;;;2.42;;
27213;SDS011;14723;55.814;37.460;2023-07-13T07:49:30;5.72;;;2.60;;
27213;SDS011;14723;55.814;37.460;2023-07-13T07:52:35;7.45;;;3.55;;
27213;SDS011;14723;55.814;37.460;2023-07-13T07:55:40;7.30;;;3.17;;
27213;SDS011;14723;55.814;37.460;2023-07-13T07:58:49;9.52;;;3.25;;
27213;SDS011;14723;55.814;37.460;2023-07-13T08:01:57;6.93;;;3.20;;
27213;SDS011;14723;55.814;37.460;2023-07-13T08:05:10;4.68;;;2.72;;
27213;SDS011;14723;55.814;37.460;2023-07-13T08:08:18;4.72;;;2.40;;
27213;SDS011;14723;55.814;37.460;2023-07-13T08:11:24;4.13;;;2.75;;
27213;SDS011;14723;55.814;37.460;2023-07-13T08:17:52;5.05;;;2.92;;
27213;SDS011;14723;55.814;37.460;2023-07-13T08:21:02;4.60;;;2.80;;
27213;SDS011;14723;55.814;37.460;2023-07-13T08:24:07;4.15;;;2.67;;
27213;SDS011;14723;55.814;37.460;2023-07-13T08:27:13;4.90;;;2.60;;
27213;SDS011;14723;55.814;37.460;2023-07-13T08:30:18;4.78;;;2.88;;
27213;SDS011;14723;55.814;37.460;2023-07-13T08:33:24;11.02;;;2.65;;
27213;SDS011;14723;55.814;37.460;2023-07-13T08:36:32;6.22;;;2.88;;
27213;SDS011;14723;55.814;37.460;2023-07-13T08:39:37;7.05;;;3.20;;
27213;SDS011;14723;55.814;37.460;2023-07-13T08:42:44;7.93;;;3.00;;
27213;SDS011;14723;55.814;37.460;2023-07-13T08:45:52;7.47;;;3.05;;
27213;SDS011;14723;55.814;37.460;2023-07-13T08:48:59;7.10;;;3.03;;
27213;SDS011;14723;55.814;37.460;2023-07-13T08:52:11;5.68;;;2.65;;
27213;SDS011;14723;55.814;37.460;2023-07-13T08:55:20;5.68;;;2.92;;
27213;SDS011;14723;55.814;37.460;2023-07-13T08:58:26;5.93;;;3.30;;
27213;SDS011;14723;55.814;37.460;2023-07-13T09:01:33;5.43;;;3.30;;
27213;SDS011;14723;55.814;37.460;2023-07-13T09:04:45;8.40;;;3.53;;
27213;SDS011;14723;55.814;37.460;2023-07-13T09:08:01;6.40;;;3.28;;
27213;SDS011;14723;55.814;37.460;2023-07-13T09:11:12;5.22;;;3.22;;
27213;SDS011;14723;55.814;37.460;2023-07-13T09:17:40;8.55;;;3.72;;
27213;SDS011;14723;55.814;37.460;2023-07-13T09:20:48;8.60;;;3.38;;
27213;SDS011;14723;55.814;37.460;2023-07-13T09:23:59;5.93;;;3.28;;
27213;SDS011;14723;55.814;37.460;2023-07-13T09:27:09;6.78;;;3.63;;
27213;SDS011;14723;55.814;37.460;2023-07-13T09:30:24;6.82;;;3.35;;
27213;SDS011;14723;55.814;37.460;2023-07-13T09:33:31;4.75;;;3.50;;
27213;SDS011;14723;55.814;37.460;2023-07-13T09:36:37;7.65;;;3.50;;
27213;SDS011;14723;55.814;37.460;2023-07-13T09:39:45;5.78;;;3.75;;
27213;SDS011;14723;55.814;37.460;2023-07-13T09:42:51;8.30;;;3.63;;
27213;SDS011;14723;55.814;37.460;2023-07-13T09:45:57;4.90;;;3.40;;
27213;SDS011;14723;55.814;37.460;2023-07-13T09:49:03;6.10;;;3.58;;
27213;SDS011;14723;55.814;37.460;2023-07-13T09:52:10;5.20;;;3.50;;
27213;SDS011;14723;55.814;37.460;2023-07-13T09:55:28;9.85;;;4.65;;
27213;SDS011;14723;55.814;37.460;2023-07-13T09:58:36;7.35;;;3.35;;
27213;SDS011;14723;55.814;37.460;2023-07-13T10:01:42;6.25;;;2.95;;
27213;SDS011;14723;55.814;37.460;2023-07-13T10:04:53;10.07;;;6.32;;
27213;SDS011;14723;55.814;37.460;2023-07-13T10:08:00;9.20;;;3.97;;
27213;SDS011;14723;55.814;37.460;2023-07-13T10:11:11;4.30;;;3.80;;
27213;SDS011;14723;55.814;37.460;2023-07-13T10:14:18;9.38;;;3.85;;
27213;SDS011;14723;55.814;37.460;2023-07-13T10:17:26;8.90;;;4.47;;
27213;SDS011;14723;55.814;37.460;2023-07-13T10:20:32;9.07;;;3.93;;
27213;SDS011;14723;55.814;37.460;2023-07-13T10:23:38;6.25;;;3.75;;
27213;SDS011;14723;55.814;37.460;2023-07-13T10:26:48;8.02;;;4.22;;
27213;SDS011;14723;55.814;37.460;2023-07-13T10:29:59;11.30;;;7.90;;
27213;SDS011;14723;55.814;37.460;2023-07-13T10:33:09;11.65;;;5.07;;
27213;SDS011;14723;55.814;37.460;2023-07-13T10:36:20;9.18;;;4.53;;
27213;SDS011;14723;55.814;37.460;2023-07-13T10:39:27;5.85;;;3.58;;
27213;SDS011;14723;55.814;37.460;2023-07-13T10:42:38;6.70;;;3.65;;
27213;SDS011;14723;55.814;37.460;2023-07-13T10:45:48;8.50;;;3.20;;
27213;SDS011;14723;55.814;37.460;2023-07-13T10:48:55;6.38;;;3.35;;
27213;SDS011;14723;55.814;37.460;2023-07-13T10:52:01;4.65;;;3.13;;
27213;SDS011;14723;55.814;37.460;2023-07-13T10:55:10;7.40;;;3.53;;
27213;SDS011;14723;55.814;37.460;2023-07-13T10:58:43;7.43;;;3.92;;
27213;SDS011;14723;55.814;37.460;2023-07-13T11:01:52;5.90;;;3.38;;
27213;SDS011;14723;55.814;37.460;2023-07-13T11:04:59;6.88;;;3.63;;
27213;SDS011;14723;55.814;37.460;2023-07-13T11:08:33;6.47;;;3.65;;
27213;SDS011;14723;55.814;37.460;2023-07-13T11:11:39;7.88;;;3.53;;
27213;SDS011;14723;55.814;37.460;2023-07-13T11:18:19;7.07;;;3.97;;
27213;SDS011;14723;55.814;37.460;2023-07-13T11:21:25;6.43;;;3.67;;
27213;SDS011;14723;55.814;37.460;2023-07-13T11:24:47;6.00;;;4.03;;
27213;SDS011;14723;55.814;37.460;2023-07-13T11:28:04;5.78;;;4.15;;
27213;SDS011;14723;55.814;37.460;2023-07-13T11:31:13;10.73;;;3.92;;
27213;SDS011;14723;55.814;37.460;2023-07-13T11:34:26;6.95;;;3.33;;
27213;SDS011;14723;55.814;37.460;2023-07-13T11:37:32;10.52;;;4.38;;
27213;SDS011;14723;55.814;37.460;2023-07-13T11:40:38;5.43;;;3.75;;
27213;SDS011;14723;55.814;37.460;2023-07-13T11:43:44;10.02;;;6.50;;
27213;SDS011;14723;55.814;37.460;2023-07-13T11:46:50;10.85;;;4.15;;
27213;SDS011;14723;55.814;37.460;2023-07-13T11:50:00;7.55;;;4.35;;
27213;SDS011;14723;55.814;37.460;2023-07-13T11:53:08;7.28;;;3.67;;
27213;SDS011;14723;55.814;37.460;2023-07-13T11:56:14;8.63;;;4.25;;
27213;SDS011;14723;55.814;37.460;2023-07-13T11:59:20;8.32;;;5.25;;
27213;SDS011;14723;55.814;37.460;2023-07-13T12:02:28;9.15;;;4.40;;
27213;SDS011;14723;55.814;37.460;2023-07-13T12:05:36;7.63;;;3.92;;
27213;SDS011;14723;55.814;37.460;2023-07-13T12:08:41;6.55;;;4.20;;
27213;SDS011;14723;55.814;37.460;2023-07-13T12:11:47;5.38;;;3.33;;
27213;SDS011;14723;55.814;37.460;2023-07-13T12:14:53;6.28;;;4.40;;
27213;SDS011;14723;55.814;37.460;2023-07-13T12:17:58;11.48;;;3.53;;
27213;SDS011;14723;55.814;37.460;2023-07-13T12:21:10;6.30;;;3.88;;
27213;SDS011;14723;55.814;37.460;2023-07-13T12:24:20;8.95;;;3.83;;
27213;SDS011;14723;55.814;37.460;2023-07-13T12:27:26;9.27;;;5.22;;
27213;SDS011;14723;55.814;37.460;2023-07-13T12:30:32;6.88;;;4.05;;
27213;SDS011;14723;55.814;37.460;2023-07-13T12:33:39;6.88;;;4.10;;
27213;SDS011;14723;55.814;37.460;2023-07-13T12:36:48;7.53;;;4.00;;
27213;SDS011;14723;55.814;37.460;2023-07-13T12:39:55;7.65;;;3.92;;
27213;SDS011;14723;55.814;37.460;2023-07-13T12:43:00;8.05;;;3.95;;
27213;SDS011;14723;55.814;37.460;2023-07-13T12:46:15;7.90;;;4.10;;
27213;SDS011;14723;55.814;37.460;2023-07-13T12:49:26;7.25;;;4.05;;
27213;SDS011;14723;55.814;37.460;2023-07-13T12:52:37;8.57;;;3.92;;
27213;SDS011;14723;55.814;37.460;2023-07-13T12:55:45;5.60;;;3.47;;
27213;SDS011;14723;55.814;37.460;2023-07-13T12:58:57;6.22;;;3.70;;
27213;SDS011;14723;55.814;37.460;2023-07-13T13:02:09;4.32;;;3.78;;
27213;SDS011;14723;55.814;37.460;2023-07-13T13:05:19;4.97;;;3.38;;
27213;SDS011;14723;55.814;37.460;2023-07-13T13:08:28;6.43;;;3.53;;
27213;SDS011;14723;55.814;37.460;2023-07-13T13:11:33;8.10;;;3.47;;
27213;SDS011;14723;55.814;37.460;2023-07-13T13:14:40;8.90;;;4.10;;
27213;SDS011;14723;55.814;37.460;2023-07-13T13:17:45;7.55;;;3.63;;
27213;SDS011;14723;55.814;37.460;2023-07-13T13:20:51;11.13;;;3.92;;
27213;SDS011;14723;55.814;37.460;2023-07-13T13:23:59;7.35;;;3.95;;
27213;SDS011;14723;55.814;37.460;2023-07-13T13:27:04;9.20;;;4.40;;
27213;SDS011;14723;55.814;37.460;2023-07-13T13:30:11;7.25;;;4.20;;
27213;SDS011;14723;55.814;37.460;2023-07-13T13:33:19;7.25;;;4.80;;
27213;SDS011;14723;55.814;37.460;2023-07-13T13:36:24;10.57;;;4.28;;
27213;SDS011;14723;55.814;37.460;2023-07-13T13:39:34;8.68;;;3.60;;
27213;SDS011;14723;55.814;37.460;2023-07-13T13:42:44;8.50;;;4.20;;
27213;SDS011;14723;55.814;37.460;2023-07-13T13:45:50;6.68;;;4.45;;
27213;SDS011;14723;55.814;37.460;2023-07-13T13:48:55;5.88;;;3.63;;
27213;SDS011;14723;55.814;37.460;2023-07-13T13:52:01;9.63;;;4.20;;
27213;SDS011;14723;55.814;37.460;2023-07-13T13:55:13;9.63;;;4.93;;
27213;SDS011;14723;55.814;37.460;2023-07-13T13:58:20;9.02;;;3.63;;
27213;SDS011;14723;55.814;37.460;2023-07-13T14:01:25;7.05;;;3.75;;
27213;SDS011;14723;55.814;37.460;2023-07-13T14:04:31;6.78;;;3.67;;
27213;SDS011;14723;55.814;37.460;2023-07-13T14:07:36;6.43;;;3.72;;
27213;SDS011;14723;55.814;37.460;2023-07-13T14:10:45;5.35;;;3.70;;
27213;SDS011;14723;55.814;37.460;2023-07-13T14:13:53;8.63;;;4.70;;
27213;SDS011;14723;55.814;37.460;2023-07-13T14:16:59;8.68;;;4.15;;
27213;SDS011;14723;55.814;37.460;2023-07-13T14:20:08;6.13;;;3.58;;
27213;SDS011;14723;55.814;37.460;2023-07-13T14:23:15;5.03;;;3.60;;
27213;SDS011;14723;55.814;37.460;2023-07-13T14:26:24;9.32;;;4.32;;
27213;SDS011;14723;55.814;37.460;2023-07-13T14:29:30;5.65;;;4.03;;
27213;SDS011;14723;55.814;37.460;2023-07-13T14:32:35;8.55;;;3.97;;
27213;SDS011;14723;55.814;37.460;2023-07-13T14:35:41;6.85;;;4.22;;
27213;SDS011;14723;55.814;37.460;2023-07-13T14:38:47;10.43;;;3.95;;
27213;SDS011;14723;55.814;37.460;2023-07-13T14:41:55;8.88;;;4.43;;
27213;SDS011;14723;55.814;37.460;2023-07-13T14:45:01;10.00;;;4.70;;
27213;SDS011;14723;55.814;37.460;2023-07-13T14:48:13;7.10;;;4.65;;
27213;SDS011;14723;55.814;37.460;2023-07-13T14:51:21;9.85;;;4.68;;
27213;SDS011;14723;55.814;37.460;2023-07-13T14:54:26;7.45;;;3.83;;
27213;SDS011;14723;55.814;37.460;2023-07-13T14:57:35;10.20;;;5.07;;
27213;SDS011;14723;55.814;37.460;2023-07-13T15:00:40;9.35;;;4.57;;
27213;SDS011;14723;55.814;37.460;2023-07-13T15:03:47;5.65;;;3.17;;
27213;SDS011;14723;55.814;37.460;2023-07-13T15:06:54;14.27;;;3.92;;
27213;SDS011;14723;55.814;37.460;2023-07-13T15:10:01;6.82;;;3.80;;
27213;SDS011;14723;55.814;37.460;2023-07-13T15:13:15;12.50;;;4.35;;
27213;SDS011;14723;55.814;37.460;2023-07-13T15:16:22;9.23;;;4.53;;
27213;SDS011;14723;55.814;37.460;2023-07-13T15:19:28;8.48;;;5.03;;
27213;SDS011;14723;55.814;37.460;2023-07-13T15:22:33;7.38;;;3.40;;
27213;SDS011;14723;55.814;37.460;2023-07-13T15:25:39;10.00;;;3.33;;
27213;SDS011;14723;55.814;37.460;2023-07-13T15:28:47;11.23;;;3.80;;
27213;SDS011;14723;55.814;37.460;2023-07-13T15:31:52;8.68;;;3.45;;
27213;SDS011;14723;55.814;37.460;2023-07-13T15:34:58;6.90;;;3.60;;
27213;SDS011;14723;55.814;37.460;2023-07-13T15:38:10;10.85;;;3.75;;
27213;SDS011;14723;55.814;37.460;2023-07-13T15:41:18;7.60;;;3.70;;
27213;SDS011;14723;55.814;37.460;2023-07-13T15:44:28;9.35;;;4.18;;
27213;SDS011;14723;55.814;37.460;2023-07-13T15:47:34;5.32;;;3.60;;
27213;SDS011;14723;55.814;37.460;2023-07-13T15:50:42;6.97;;;3.58;;
27213;SDS011;14723;55.814;37.460;2023-07-13T15:53:48;6.82;;;3.83;;
27213;SDS011;14723;55.814;37.460;2023-07-13T15:56:54;5.82;;;3.95;;
27213;SDS011;14723;55.814;37.460;2023-07-13T16:00:03;5.35;;;3.83;;
27213;SDS011;14723;55.814;37.460;2023-07-13T16:03:13;6.80;;;4.00;;
27213;SDS011;14723;55.814;37.460;2023-07-13T16:06:20;8.77;;;4.55;;
27213;SDS011;14723;55.814;37.460;2023-07-13T16:09:27;7.95;;;4.38;;
27213;SDS011;14723;55.814;37.460;2023-07-13T16:12:33;8.23;;;4.78;;
27213;SDS011;14723;55.814;37.460;2023-07-13T16:15:45;12.38;;;6.53;;
27213;SDS011;14723;55.814;37.460;2023-07-13T16:18:51;7.47;;;4.05;;
27213;SDS011;14723;55.814;37.460;2023-07-13T16:21:56;7.03;;;4.00;;
27213;SDS011;14723;55.814;37.460;2023-07-13T16:25:04;8.82;;;3.90;;
27213;SDS011;14723;55.814;37.460;2023-07-13T16:28:17;5.45;;;3.45;;
27213;SDS011;14723;55.814;37.460;2023-07-13T16:31:29;7.53;;;3.90;;
27213;SDS011;14723;55.814;37.460;2023-07-13T16:34:37;9.93;;;4.28;;
27213;SDS011;14723;55.814;37.460;2023-07-13T16:37:43;11.63;;;5.13;;
27213;SDS011;14723;55.814;37.460;2023-07-13T16:41:03;7.55;;;4.28;;
27213;SDS011;14723;55.814;37.460;2023-07-13T16:47:21;12.93;;;5.38;;
27213;SDS011;14723;55.814;37.460;2023-07-13T16:50:29;10.88;;;5.60;;
27213;SDS011;14723;55.814;37.460;2023-07-13T16:53:35;12.63;;;5.87;;
27213;SDS011;14723;55.814;37.460;2023-07-13T16:56:42;11.27;;;5.90;;
27213;SDS011;14723;55.814;37.460;2023-07-13T16:59:49;16.83;;;7.35;;
27213;SDS011;14723;55.814;37.460;2023-07-13T17:02:57;16.10;;;8.25;;
27213;SDS011;14723;55.814;37.460;2023-07-13T17:06:12;12.10;;;5.93;;
27213;SDS011;14723;55.814;37.460;2023-07-13T17:09:25;15.95;;;6.50;;
27213;SDS011;14723;55.814;37.460;2023-07-13T17:12:32;9.52;;;5.47;;
27213;SDS011;14723;55.814;37.460;2023-07-13T17:15:38;8.77;;;5.00;;
27213;SDS011;14723;55.814;37.460;2023-07-13T17:18:47;10.02;;;5.57;;
27213;SDS011;14723;55.814;37.460;2023-07-13T17:21:53;11.82;;;4.95;;
27213;SDS011;14723;55.814;37.460;2023-07-13T17:24:58;10.63;;;5.40;;
27213;SDS011;14723;55.814;37.460;2023-07-13T17:28:06;11.10;;;5.33;;
27213;SDS011;14723;55.814;37.460;2023-07-13T17:31:12;8.38;;;5.20;;
27213;SDS011;14723;55.814;37.460;2023-07-13T17:34:26;15.57;;;6.35;;
27213;SDS011;14723;55.814;37.460;2023-07-13T17:37:33;11.65;;;6.15;;
27213;SDS011;14723;55.814;37.460;2023-07-13T17:40:39;9.98;;;4.93;;
27213;SDS011;14723;55.814;37.460;2023-07-13T17:43:47;11.73;;;5.32;;
27213;SDS011;14723;55.814;37.460;2023-07-13T17:46:53;13.43;;;6.32;;
27213;SDS011;14723;55.814;37.460;2023-07-13T17:50:04;8.95;;;4.82;;
27213;SDS011;14723;55.814;37.460;2023-07-13T17:53:14;7.18;;;4.85;;
27213;SDS011;14723;55.814;37.460;2023-07-13T17:56:20;8.55;;;4.57;;
27213;SDS011;14723;55.814;37.460;2023-07-13T17:59:26;7.53;;;5.65;;
27213;SDS011;14723;55.814;37.460;2023-07-13T18:02:32;9.15;;;5.40;;
27213;SDS011;14723;55.814;37.460;2023-07-13T18:05:40;11.70;;;5.90;;
27213;SDS011;14723;55.814;37.460;2023-07-13T18:08:50;12.13;;;5.95;;
27213;SDS011;14723;55.814;37.460;2023-07-13T18:11:56;10.02;;;5.85;;
27213;SDS011;14723;55.814;37.460;2023-07-13T18:15:02;11.95;;;6.22;;
27213;SDS011;14723;55.814;37.460;2023-07-13T18:18:07;10.55;;;5.63;;
27213;SDS011;14723;55.814;37.460;2023-07-13T18:21:17;14.07;;;6.72;;
27213;SDS011;14723;55.814;37.460;2023-07-13T18:24:22;9.77;;;5.78;;
27213;SDS011;14723;55.814;37.460;2023-07-13T18:27:28;11.02;;;5.40;;
27213;SDS011;14723;55.814;37.460;2023-07-13T18:30:33;12.15;;;6.38;;
27213;SDS011;14723;55.814;37.460;2023-07-13T18:33:39;14.02;;;5.80;;
27213;SDS011;14723;55.814;37.460;2023-07-13T18:36:48;10.35;;;6.03;;
27213;SDS011;14723;55.814;37.460;2023-07-13T18:42:58;9.60;;;5.88;;
27213;SDS011;14723;55.814;37.460;2023-07-13T18:46:09;9.98;;;5.47;;
27213;SDS011;14723;55.814;37.460;2023-07-13T18:49:16;11.15;;;6.00;;
27213;SDS011;14723;55.814;37.460;2023-07-13T18:52:27;9.25;;;5.65;;